sensor_id;sensor_type;location;lat;lon;timestamp;P1;durP1;ratioP1;P2;durP2;ratioP2
19219;SDS011;9744;49.364;7.484;2022-10-31T00:00:43;10.68;;;2.63;;
19219;SDS011;9744;49.364;7.484;2022-10-31T00:03:10;6.32;;;2.88;;
19219;SDS011;9744;49.364;7.484;2022-10-31T00:05:41;16.13;;;3.22;;
19219;SDS011;9744;49.364;7.484;2022-10-31T00:08:09;13.35;;;2.72;;
19219;SDS011;9744;49.364;7.484;2022-10-31T00:10:37;7.13;;;2.95;;
19219;SDS011;9744;49.364;7.484;2022-10-31T00:13:05;9.32;;;2.97;;
19219;SDS011;9744;49.364;7.484;2022-10-31T00:15:32;11.45;;;3.38;;
19219;SDS011;9744;49.364;7.484;2022-10-31T00:18:00;11.30;;;2.80;;
19219;SDS011;9744;49.364;7.484;2022-10-31T00:20:27;8.40;;;3.10;;
19219;SDS011;9744;49.364;7.484;2022-10-31T00:22:58;7.10;;;2.95;;
19219;SDS011;9744;49.364;7.484;2022-10-31T00:25:26;7.63;;;3.13;;
19219;SDS011;9744;49.364;7.484;2022-10-31T00:27:55;6.43;;;2.92;;
19219;SDS011;9744;49.364;7.484;2022-10-31T00:30:23;14.55;;;3.63;;
19219;SDS011;9744;49.364;7.484;2022-10-31T00:32:50;13.00;;;3.25;;
19219;SDS011;9744;49.364;7.484;2022-10-31T00:35:17;14.38;;;3.42;;
19219;SDS011;9744;49.364;7.484;2022-10-31T00:37:44;8.25;;;3.13;;
19219;SDS011;9744;49.364;7.484;2022-10-31T00:40:14;13.70;;;3.65;;
19219;SDS011;9744;49.364;7.484;2022-10-31T00:42:41;15.73;;;3.85;;
19219;SDS011;9744;49.364;7.484;2022-10-31T00:45:09;18.13;;;3.75;;
19219;SDS011;9744;49.364;7.484;2022-10-31T00:47:37;6.55;;;2.83;;
19219;SDS011;9744;49.364;7.484;2022-10-31T00:50:04;12.07;;;3.25;;
19219;SDS011;9744;49.364;7.484;2022-10-31T00:52:32;10.45;;;3.10;;
19219;SDS011;9744;49.364;7.484;2022-10-31T00:54:59;11.25;;;3.25;;
19219;SDS011;9744;49.364;7.484;2022-10-31T00:57:29;9.82;;;3.28;;
19219;SDS011;9744;49.364;7.484;2022-10-31T00:59:56;6.88;;;3.58;;
19219;SDS011;9744;49.364;7.484;2022-10-31T01:02:24;15.02;;;3.22;;
19219;SDS011;9744;49.364;7.484;2022-10-31T01:04:51;20.95;;;4.32;;
19219;SDS011;9744;49.364;7.484;2022-10-31T01:07:20;14.45;;;3.45;;
19219;SDS011;9744;49.364;7.484;2022-10-31T01:09:47;7.78;;;3.15;;
19219;SDS011;9744;49.364;7.484;2022-10-31T01:12:14;8.05;;;3.00;;
19219;SDS011;9744;49.364;7.484;2022-10-31T01:14:44;13.90;;;3.42;;
19219;SDS011;9744;49.364;7.484;2022-10-31T01:17:11;15.85;;;3.78;;
19219;SDS011;9744;49.364;7.484;2022-10-31T01:19:39;9.68;;;2.95;;
19219;SDS011;9744;49.364;7.484;2022-10-31T01:22:06;7.72;;;3.00;;
19219;SDS011;9744;49.364;7.484;2022-10-31T01:24:34;5.57;;;2.78;;
19219;SDS011;9744;49.364;7.484;2022-10-31T01:27:01;8.52;;;3.40;;
19219;SDS011;9744;49.364;7.484;2022-10-31T01:29:32;8.85;;;3.35;;
19219;SDS011;9744;49.364;7.484;2022-10-31T01:32:01;9.07;;;2.70;;
19219;SDS011;9744;49.364;7.484;2022-10-31T01:34:30;15.05;;;3.60;;
19219;SDS011;9744;49.364;7.484;2022-10-31T01:36:57;17.08;;;3.20;;
19219;SDS011;9744;49.364;7.484;2022-10-31T01:39:25;9.95;;;3.53;;
19219;SDS011;9744;49.364;7.484;2022-10-31T01:41:53;12.68;;;3.08;;
19219;SDS011;9744;49.364;7.484;2022-10-31T01:47:24;11.45;;;3.28;;
19219;SDS011;9744;49.364;7.484;2022-10-31T01:49:59;14.73;;;3.90;;
19219;SDS011;9744;49.364;7.484;2022-10-31T01:52:29;7.35;;;3.17;;
19219;SDS011;9744;49.364;7.484;2022-10-31T01:54:59;11.90;;;2.97;;
19219;SDS011;9744;49.364;7.484;2022-10-31T01:57:29;11.70;;;3.33;;
19219;SDS011;9744;49.364;7.484;2022-10-31T02:00:00;10.70;;;3.35;;
19219;SDS011;9744;49.364;7.484;2022-10-31T02:02:40;6.28;;;3.00;;
19219;SDS011;9744;49.364;7.484;2022-10-31T02:05:09;12.90;;;3.28;;
19219;SDS011;9744;49.364;7.484;2022-10-31T02:07:39;9.38;;;3.28;;
19219;SDS011;9744;49.364;7.484;2022-10-31T02:10:12;10.20;;;3.40;;
19219;SDS011;9744;49.364;7.484;2022-10-31T02:12:39;10.40;;;3.30;;
19219;SDS011;9744;49.364;7.484;2022-10-31T02:15:09;10.68;;;3.50;;
19219;SDS011;9744;49.364;7.484;2022-10-31T02:17:36;9.75;;;2.88;;
19219;SDS011;9744;49.364;7.484;2022-10-31T02:20:08;7.55;;;3.00;;
19219;SDS011;9744;49.364;7.484;2022-10-31T02:22:48;9.32;;;2.90;;
19219;SDS011;9744;49.364;7.484;2022-10-31T02:25:40;7.85;;;2.97;;
19219;SDS011;9744;49.364;7.484;2022-10-31T02:28:24;8.13;;;3.28;;
19219;SDS011;9744;49.364;7.484;2022-10-31T02:31:10;8.68;;;3.75;;
19219;SDS011;9744;49.364;7.484;2022-10-31T02:33:45;11.07;;;3.05;;
19219;SDS011;9744;49.364;7.484;2022-10-31T02:36:20;11.52;;;3.00;;
19219;SDS011;9744;49.364;7.484;2022-10-31T02:38:56;12.05;;;3.45;;
19219;SDS011;9744;49.364;7.484;2022-10-31T02:41:42;8.98;;;2.88;;
19219;SDS011;9744;49.364;7.484;2022-10-31T02:44:15;14.40;;;3.20;;
19219;SDS011;9744;49.364;7.484;2022-10-31T02:46:51;15.00;;;3.35;;
19219;SDS011;9744;49.364;7.484;2022-10-31T02:49:23;12.55;;;2.80;;
19219;SDS011;9744;49.364;7.484;2022-10-31T02:51:54;9.50;;;3.40;;
19219;SDS011;9744;49.364;7.484;2022-10-31T02:54:22;9.15;;;3.13;;
19219;SDS011;9744;49.364;7.484;2022-10-31T02:56:54;18.15;;;3.67;;
19219;SDS011;9744;49.364;7.484;2022-10-31T02:59:26;5.05;;;2.70;;
19219;SDS011;9744;49.364;7.484;2022-10-31T03:02:02;12.80;;;3.45;;
19219;SDS011;9744;49.364;7.484;2022-10-31T03:04:44;11.13;;;3.40;;
19219;SDS011;9744;49.364;7.484;2022-10-31T03:07:35;8.10;;;3.30;;
19219;SDS011;9744;49.364;7.484;2022-10-31T03:10:12;8.27;;;3.25;;
19219;SDS011;9744;49.364;7.484;2022-10-31T03:12:46;7.40;;;3.38;;
19219;SDS011;9744;49.364;7.484;2022-10-31T03:15:21;7.45;;;3.65;;
19219;SDS011;9744;49.364;7.484;2022-10-31T03:17:54;6.57;;;4.00;;
19219;SDS011;9744;49.364;7.484;2022-10-31T03:20:28;6.03;;;3.20;;
19219;SDS011;9744;49.364;7.484;2022-10-31T03:22:59;9.13;;;3.25;;
19219;SDS011;9744;49.364;7.484;2022-10-31T03:25:28;8.68;;;3.22;;
19219;SDS011;9744;49.364;7.484;2022-10-31T03:27:58;6.97;;;2.90;;
19219;SDS011;9744;49.364;7.484;2022-10-31T03:30:29;6.20;;;3.00;;
19219;SDS011;9744;49.364;7.484;2022-10-31T03:33:01;7.68;;;3.33;;
19219;SDS011;9744;49.364;7.484;2022-10-31T03:35:32;10.57;;;2.97;;
19219;SDS011;9744;49.364;7.484;2022-10-31T03:38:02;6.65;;;3.72;;
19219;SDS011;9744;49.364;7.484;2022-10-31T03:40:32;6.38;;;3.53;;
19219;SDS011;9744;49.364;7.484;2022-10-31T03:43:03;7.30;;;3.60;;
19219;SDS011;9744;49.364;7.484;2022-10-31T03:45:35;7.05;;;3.38;;
19219;SDS011;9744;49.364;7.484;2022-10-31T03:48:09;11.10;;;3.22;;
19219;SDS011;9744;49.364;7.484;2022-10-31T03:50:38;6.65;;;3.45;;
19219;SDS011;9744;49.364;7.484;2022-10-31T03:53:12;6.53;;;3.17;;
19219;SDS011;9744;49.364;7.484;2022-10-31T03:55:45;5.90;;;3.15;;
19219;SDS011;9744;49.364;7.484;2022-10-31T03:58:18;10.90;;;3.45;;
19219;SDS011;9744;49.364;7.484;2022-10-31T04:00:48;12.50;;;3.13;;
19219;SDS011;9744;49.364;7.484;2022-10-31T04:03:21;8.60;;;2.88;;
19219;SDS011;9744;49.364;7.484;2022-10-31T04:05:53;7.05;;;3.00;;
19219;SDS011;9744;49.364;7.484;2022-10-31T04:08:24;7.72;;;2.92;;
19219;SDS011;9744;49.364;7.484;2022-10-31T04:10:54;9.50;;;2.90;;
19219;SDS011;9744;49.364;7.484;2022-10-31T04:13:25;8.15;;;2.88;;
19219;SDS011;9744;49.364;7.484;2022-10-31T04:16:02;5.40;;;3.05;;
19219;SDS011;9744;49.364;7.484;2022-10-31T04:18:33;7.43;;;3.08;;
19219;SDS011;9744;49.364;7.484;2022-10-31T04:21:03;13.98;;;3.08;;
19219;SDS011;9744;49.364;7.484;2022-10-31T04:23:32;7.05;;;3.20;;
19219;SDS011;9744;49.364;7.484;2022-10-31T04:26:07;9.25;;;4.03;;
19219;SDS011;9744;49.364;7.484;2022-10-31T04:28:37;9.80;;;4.78;;
19219;SDS011;9744;49.364;7.484;2022-10-31T04:31:04;18.10;;;6.80;;
19219;SDS011;9744;49.364;7.484;2022-10-31T04:33:36;19.17;;;7.28;;
19219;SDS011;9744;49.364;7.484;2022-10-31T04:36:05;20.58;;;8.88;;
19219;SDS011;9744;49.364;7.484;2022-10-31T04:38:32;25.90;;;10.02;;
19219;SDS011;9744;49.364;7.484;2022-10-31T04:41:02;27.80;;;10.65;;
19219;SDS011;9744;49.364;7.484;2022-10-31T04:43:45;28.33;;;10.65;;
19219;SDS011;9744;49.364;7.484;2022-10-31T04:46:12;28.77;;;12.85;;
19219;SDS011;9744;49.364;7.484;2022-10-31T04:48:41;28.63;;;13.18;;
19219;SDS011;9744;49.364;7.484;2022-10-31T04:51:10;34.28;;;16.80;;
19219;SDS011;9744;49.364;7.484;2022-10-31T04:53:37;40.03;;;18.45;;
19219;SDS011;9744;49.364;7.484;2022-10-31T04:56:23;41.00;;;17.95;;
19219;SDS011;9744;49.364;7.484;2022-10-31T04:58:56;48.30;;;19.08;;
19219;SDS011;9744;49.364;7.484;2022-10-31T05:01:24;53.75;;;22.92;;
19219;SDS011;9744;49.364;7.484;2022-10-31T05:03:54;71.10;;;32.92;;
19219;SDS011;9744;49.364;7.484;2022-10-31T05:06:22;92.40;;;40.42;;
19219;SDS011;9744;49.364;7.484;2022-10-31T05:08:49;94.38;;;41.90;;
19219;SDS011;9744;49.364;7.484;2022-10-31T05:11:18;90.82;;;42.97;;
19219;SDS011;9744;49.364;7.484;2022-10-31T05:13:45;74.68;;;32.13;;
19219;SDS011;9744;49.364;7.484;2022-10-31T05:16:13;59.45;;;27.00;;
19219;SDS011;9744;49.364;7.484;2022-10-31T05:19:16;33.50;;;14.00;;
19219;SDS011;9744;49.364;7.484;2022-10-31T05:22:02;29.42;;;12.55;;
19219;SDS011;9744;49.364;7.484;2022-10-31T05:24:31;33.83;;;13.98;;
19219;SDS011;9744;49.364;7.484;2022-10-31T05:26:58;31.88;;;14.85;;
19219;SDS011;9744;49.364;7.484;2022-10-31T05:29:26;18.40;;;7.28;;
19219;SDS011;9744;49.364;7.484;2022-10-31T05:31:53;21.85;;;8.88;;
19219;SDS011;9744;49.364;7.484;2022-10-31T05:34:42;11.52;;;5.82;;
19219;SDS011;9744;49.364;7.484;2022-10-31T05:37:36;21.45;;;8.40;;
19219;SDS011;9744;49.364;7.484;2022-10-31T05:40:05;15.48;;;7.32;;
19219;SDS011;9744;49.364;7.484;2022-10-31T05:42:33;16.42;;;5.95;;
19219;SDS011;9744;49.364;7.484;2022-10-31T05:45:02;12.07;;;3.72;;
19219;SDS011;9744;49.364;7.484;2022-10-31T05:47:50;18.52;;;6.50;;
19219;SDS011;9744;49.364;7.484;2022-10-31T05:50:57;16.90;;;4.88;;
19219;SDS011;9744;49.364;7.484;2022-10-31T05:53:25;17.33;;;7.03;;
19219;SDS011;9744;49.364;7.484;2022-10-31T05:55:52;14.68;;;6.55;;
19219;SDS011;9744;49.364;7.484;2022-10-31T05:58:21;18.13;;;9.18;;
19219;SDS011;9744;49.364;7.484;2022-10-31T06:00:56;18.60;;;8.73;;
19219;SDS011;9744;49.364;7.484;2022-10-31T06:03:23;14.48;;;7.90;;
19219;SDS011;9744;49.364;7.484;2022-10-31T06:06:00;16.65;;;8.75;;
19219;SDS011;9744;49.364;7.484;2022-10-31T06:08:36;15.30;;;6.68;;
19219;SDS011;9744;49.364;7.484;2022-10-31T06:11:06;14.75;;;5.38;;
19219;SDS011;9744;49.364;7.484;2022-10-31T06:13:52;13.68;;;5.75;;
19219;SDS011;9744;49.364;7.484;2022-10-31T06:16:24;19.48;;;7.00;;
19219;SDS011;9744;49.364;7.484;2022-10-31T06:18:53;16.45;;;5.97;;
19219;SDS011;9744;49.364;7.484;2022-10-31T06:21:22;15.90;;;3.75;;
19219;SDS011;9744;49.364;7.484;2022-10-31T06:23:50;16.33;;;6.50;;
19219;SDS011;9744;49.364;7.484;2022-10-31T06:26:44;19.38;;;7.25;;
19219;SDS011;9744;49.364;7.484;2022-10-31T06:29:12;20.23;;;7.28;;
19219;SDS011;9744;49.364;7.484;2022-10-31T06:31:58;17.15;;;5.90;;
19219;SDS011;9744;49.364;7.484;2022-10-31T06:34:27;19.52;;;7.68;;
19219;SDS011;9744;49.364;7.484;2022-10-31T06:36:56;22.70;;;8.20;;
19219;SDS011;9744;49.364;7.484;2022-10-31T06:39:24;21.38;;;9.75;;
19219;SDS011;9744;49.364;7.484;2022-10-31T06:41:52;18.10;;;8.60;;
19219;SDS011;9744;49.364;7.484;2022-10-31T06:44:20;17.30;;;7.90;;
19219;SDS011;9744;49.364;7.484;2022-10-31T06:47:13;27.70;;;10.73;;
19219;SDS011;9744;49.364;7.484;2022-10-31T06:49:52;17.02;;;8.30;;
19219;SDS011;9744;49.364;7.484;2022-10-31T06:52:23;18.85;;;9.07;;
19219;SDS011;9744;49.364;7.484;2022-10-31T06:54:53;16.80;;;7.85;;
19219;SDS011;9744;49.364;7.484;2022-10-31T06:57:22;18.00;;;6.20;;
19219;SDS011;9744;49.364;7.484;2022-10-31T06:59:49;15.80;;;7.25;;
19219;SDS011;9744;49.364;7.484;2022-10-31T07:02:35;15.48;;;5.97;;
19219;SDS011;9744;49.364;7.484;2022-10-31T07:05:04;13.88;;;5.25;;
19219;SDS011;9744;49.364;7.484;2022-10-31T07:07:33;14.65;;;5.45;;
19219;SDS011;9744;49.364;7.484;2022-10-31T07:10:01;16.25;;;5.20;;
19219;SDS011;9744;49.364;7.484;2022-10-31T07:12:42;10.00;;;4.38;;
19219;SDS011;9744;49.364;7.484;2022-10-31T07:15:09;11.20;;;3.85;;
19219;SDS011;9744;49.364;7.484;2022-10-31T07:17:36;10.90;;;4.25;;
19219;SDS011;9744;49.364;7.484;2022-10-31T07:20:04;17.95;;;4.07;;
19219;SDS011;9744;49.364;7.484;2022-10-31T07:22:34;15.75;;;5.43;;
19219;SDS011;9744;49.364;7.484;2022-10-31T07:25:04;14.93;;;5.10;;
19219;SDS011;9744;49.364;7.484;2022-10-31T07:27:35;16.45;;;4.95;;
19219;SDS011;9744;49.364;7.484;2022-10-31T07:30:03;18.52;;;6.30;;
19219;SDS011;9744;49.364;7.484;2022-10-31T07:32:38;16.73;;;5.93;;
19219;SDS011;9744;49.364;7.484;2022-10-31T07:35:07;14.82;;;5.47;;
19219;SDS011;9744;49.364;7.484;2022-10-31T07:37:46;14.57;;;5.35;;
19219;SDS011;9744;49.364;7.484;2022-10-31T07:40:14;18.42;;;5.07;;
19219;SDS011;9744;49.364;7.484;2022-10-31T07:42:43;13.60;;;4.82;;
19219;SDS011;9744;49.364;7.484;2022-10-31T07:45:32;15.18;;;5.68;;
19219;SDS011;9744;49.364;7.484;2022-10-31T07:48:22;13.95;;;5.45;;
19219;SDS011;9744;49.364;7.484;2022-10-31T07:51:08;13.13;;;4.57;;
19219;SDS011;9744;49.364;7.484;2022-10-31T07:53:55;12.43;;;4.97;;
19219;SDS011;9744;49.364;7.484;2022-10-31T07:56:27;16.40;;;4.93;;
19219;SDS011;9744;49.364;7.484;2022-10-31T07:58:54;13.68;;;4.57;;
19219;SDS011;9744;49.364;7.484;2022-10-31T08:01:21;8.30;;;3.55;;
19219;SDS011;9744;49.364;7.484;2022-10-31T08:04:08;11.73;;;3.97;;
19219;SDS011;9744;49.364;7.484;2022-10-31T08:06:59;15.63;;;4.90;;
19219;SDS011;9744;49.364;7.484;2022-10-31T08:09:32;19.58;;;8.25;;
19219;SDS011;9744;49.364;7.484;2022-10-31T08:12:04;14.45;;;6.85;;
19219;SDS011;9744;49.364;7.484;2022-10-31T08:14:34;11.15;;;5.22;;
19219;SDS011;9744;49.364;7.484;2022-10-31T08:17:01;16.70;;;6.55;;
19219;SDS011;9744;49.364;7.484;2022-10-31T08:19:39;12.60;;;6.63;;
19219;SDS011;9744;49.364;7.484;2022-10-31T08:22:09;13.48;;;4.68;;
19219;SDS011;9744;49.364;7.484;2022-10-31T08:24:37;11.95;;;3.67;;
19219;SDS011;9744;49.364;7.484;2022-10-31T08:27:04;10.85;;;4.20;;
19219;SDS011;9744;49.364;7.484;2022-10-31T08:29:32;9.00;;;4.05;;
19219;SDS011;9744;49.364;7.484;2022-10-31T08:32:00;9.50;;;3.67;;
19219;SDS011;9744;49.364;7.484;2022-10-31T08:34:45;15.57;;;4.15;;
19219;SDS011;9744;49.364;7.484;2022-10-31T08:37:38;13.15;;;4.00;;
19219;SDS011;9744;49.364;7.484;2022-10-31T08:40:08;15.88;;;3.40;;
19219;SDS011;9744;49.364;7.484;2022-10-31T08:42:36;11.48;;;4.40;;
19219;SDS011;9744;49.364;7.484;2022-10-31T08:45:03;8.82;;;4.18;;
19219;SDS011;9744;49.364;7.484;2022-10-31T08:47:32;12.13;;;3.65;;
19219;SDS011;9744;49.364;7.484;2022-10-31T08:49:59;10.68;;;4.20;;
19219;SDS011;9744;49.364;7.484;2022-10-31T08:52:27;10.30;;;3.72;;
19219;SDS011;9744;49.364;7.484;2022-10-31T08:54:59;10.50;;;3.80;;
19219;SDS011;9744;49.364;7.484;2022-10-31T08:58:00;10.30;;;3.25;;
19219;SDS011;9744;49.364;7.484;2022-10-31T09:00:36;7.90;;;2.95;;
19219;SDS011;9744;49.364;7.484;2022-10-31T09:03:14;8.57;;;3.25;;
19219;SDS011;9744;49.364;7.484;2022-10-31T09:05:43;12.05;;;3.42;;
19219;SDS011;9744;49.364;7.484;2022-10-31T09:08:11;14.77;;;3.85;;
19219;SDS011;9744;49.364;7.484;2022-10-31T09:10:39;11.95;;;3.72;;
19219;SDS011;9744;49.364;7.484;2022-10-31T09:13:09;12.85;;;3.85;;
19219;SDS011;9744;49.364;7.484;2022-10-31T09:15:58;7.35;;;3.33;;
19219;SDS011;9744;49.364;7.484;2022-10-31T09:18:25;12.85;;;3.00;;
19219;SDS011;9744;49.364;7.484;2022-10-31T09:20:57;10.48;;;3.45;;
19219;SDS011;9744;49.364;7.484;2022-10-31T09:23:26;10.15;;;2.90;;
19219;SDS011;9744;49.364;7.484;2022-10-31T09:25:54;16.48;;;3.55;;
19219;SDS011;9744;49.364;7.484;2022-10-31T09:28:45;10.48;;;3.03;;
19219;SDS011;9744;49.364;7.484;2022-10-31T09:31:15;8.57;;;2.55;;
19219;SDS011;9744;49.364;7.484;2022-10-31T09:33:48;12.45;;;3.15;;
19219;SDS011;9744;49.364;7.484;2022-10-31T09:36:34;11.40;;;3.17;;
19219;SDS011;9744;49.364;7.484;2022-10-31T09:39:03;12.52;;;3.47;;
19219;SDS011;9744;49.364;7.484;2022-10-31T09:41:36;12.93;;;3.17;;
19219;SDS011;9744;49.364;7.484;2022-10-31T09:44:20;12.90;;;3.45;;
19219;SDS011;9744;49.364;7.484;2022-10-31T09:46:55;11.30;;;3.13;;
19219;SDS011;9744;49.364;7.484;2022-10-31T09:49:35;11.20;;;3.20;;
19219;SDS011;9744;49.364;7.484;2022-10-31T09:52:17;8.98;;;3.00;;
19219;SDS011;9744;49.364;7.484;2022-10-31T09:54:51;11.48;;;4.30;;
19219;SDS011;9744;49.364;7.484;2022-10-31T09:59:55;10.35;;;4.00;;
19219;SDS011;9744;49.364;7.484;2022-10-31T10:02:23;12.10;;;4.32;;
19219;SDS011;9744;49.364;7.484;2022-10-31T10:04:57;12.02;;;3.75;;
19219;SDS011;9744;49.364;7.484;2022-10-31T10:07:30;11.45;;;3.70;;
19219;SDS011;9744;49.364;7.484;2022-10-31T10:10:26;8.05;;;3.00;;
19219;SDS011;9744;49.364;7.484;2022-10-31T10:16:28;9.38;;;3.50;;
19219;SDS011;9744;49.364;7.484;2022-10-31T10:19:12;11.73;;;3.67;;
19219;SDS011;9744;49.364;7.484;2022-10-31T10:21:50;12.35;;;4.35;;
19219;SDS011;9744;49.364;7.484;2022-10-31T10:24:25;11.30;;;3.70;;
19219;SDS011;9744;49.364;7.484;2022-10-31T10:27:03;8.10;;;3.50;;
19219;SDS011;9744;49.364;7.484;2022-10-31T10:29:37;13.18;;;3.88;;
19219;SDS011;9744;49.364;7.484;2022-10-31T10:32:13;11.43;;;3.38;;
19219;SDS011;9744;49.364;7.484;2022-10-31T10:34:47;15.93;;;3.58;;
19219;SDS011;9744;49.364;7.484;2022-10-31T10:37:21;15.95;;;3.60;;
19219;SDS011;9744;49.364;7.484;2022-10-31T10:39:55;13.98;;;4.45;;
19219;SDS011;9744;49.364;7.484;2022-10-31T10:42:26;10.07;;;3.75;;
19219;SDS011;9744;49.364;7.484;2022-10-31T10:45:16;11.77;;;3.00;;
19219;SDS011;9744;49.364;7.484;2022-10-31T10:48:06;9.98;;;4.07;;
19219;SDS011;9744;49.364;7.484;2022-10-31T10:50:48;5.00;;;2.67;;
19219;SDS011;9744;49.364;7.484;2022-10-31T10:53:20;10.60;;;3.50;;
19219;SDS011;9744;49.364;7.484;2022-10-31T10:56:02;12.25;;;3.80;;
19219;SDS011;9744;49.364;7.484;2022-10-31T10:58:38;16.50;;;4.40;;
19219;SDS011;9744;49.364;7.484;2022-10-31T11:01:09;12.88;;;3.33;;
19219;SDS011;9744;49.364;7.484;2022-10-31T11:03:39;11.65;;;4.00;;
19219;SDS011;9744;49.364;7.484;2022-10-31T11:06:15;9.70;;;3.28;;
19219;SDS011;9744;49.364;7.484;2022-10-31T11:08:47;11.02;;;3.30;;
19219;SDS011;9744;49.364;7.484;2022-10-31T11:11:19;10.93;;;3.72;;
19219;SDS011;9744;49.364;7.484;2022-10-31T11:13:53;11.40;;;3.45;;
19219;SDS011;9744;49.364;7.484;2022-10-31T11:16:28;7.38;;;3.30;;
19219;SDS011;9744;49.364;7.484;2022-10-31T11:19:06;17.75;;;4.68;;
19219;SDS011;9744;49.364;7.484;2022-10-31T11:21:40;10.60;;;4.20;;
19219;SDS011;9744;49.364;7.484;2022-10-31T11:24:12;15.27;;;3.85;;
19219;SDS011;9744;49.364;7.484;2022-10-31T11:26:42;7.93;;;3.10;;
19219;SDS011;9744;49.364;7.484;2022-10-31T11:29:16;13.07;;;3.40;;
19219;SDS011;9744;49.364;7.484;2022-10-31T11:31:46;10.70;;;4.28;;
19219;SDS011;9744;49.364;7.484;2022-10-31T11:34:21;10.82;;;3.90;;
19219;SDS011;9744;49.364;7.484;2022-10-31T11:36:54;11.00;;;4.10;;
19219;SDS011;9744;49.364;7.484;2022-10-31T11:39:26;14.52;;;3.97;;
19219;SDS011;9744;49.364;7.484;2022-10-31T11:41:53;10.40;;;3.72;;
19219;SDS011;9744;49.364;7.484;2022-10-31T11:44:22;13.20;;;4.20;;
19219;SDS011;9744;49.364;7.484;2022-10-31T11:46:52;8.90;;;3.80;;
19219;SDS011;9744;49.364;7.484;2022-10-31T11:49:30;10.73;;;3.50;;
19219;SDS011;9744;49.364;7.484;2022-10-31T11:52:01;12.27;;;4.43;;
19219;SDS011;9744;49.364;7.484;2022-10-31T11:54:35;9.85;;;3.33;;
19219;SDS011;9744;49.364;7.484;2022-10-31T11:57:20;12.82;;;4.13;;
19219;SDS011;9744;49.364;7.484;2022-10-31T11:59:52;12.88;;;4.43;;
19219;SDS011;9744;49.364;7.484;2022-10-31T12:02:21;8.80;;;4.85;;
19219;SDS011;9744;49.364;7.484;2022-10-31T12:04:51;13.48;;;4.45;;
19219;SDS011;9744;49.364;7.484;2022-10-31T12:07:24;10.63;;;3.80;;
19219;SDS011;9744;49.364;7.484;2022-10-31T12:09:51;8.02;;;3.40;;
19219;SDS011;9744;49.364;7.484;2022-10-31T12:21:22;8.77;;;4.47;;
19219;SDS011;9744;49.364;7.484;2022-10-31T12:24:09;10.20;;;4.55;;
19219;SDS011;9744;49.364;7.484;2022-10-31T12:26:45;8.27;;;3.92;;
19219;SDS011;9744;49.364;7.484;2022-10-31T12:29:30;6.82;;;3.10;;
19219;SDS011;9744;49.364;7.484;2022-10-31T12:32:17;12.40;;;3.88;;
19219;SDS011;9744;49.364;7.484;2022-10-31T12:34:58;16.15;;;4.53;;
19219;SDS011;9744;49.364;7.484;2022-10-31T12:37:44;8.05;;;4.05;;
19219;SDS011;9744;49.364;7.484;2022-10-31T12:40:32;17.70;;;5.28;;
19219;SDS011;9744;49.364;7.484;2022-10-31T12:43:12;10.57;;;4.60;;
19219;SDS011;9744;49.364;7.484;2022-10-31T12:45:52;8.77;;;4.15;;
19219;SDS011;9744;49.364;7.484;2022-10-31T12:51:15;16.42;;;4.97;;
19219;SDS011;9744;49.364;7.484;2022-10-31T12:53:55;13.48;;;4.07;;
19219;SDS011;9744;49.364;7.484;2022-10-31T12:56:42;17.83;;;5.80;;
19219;SDS011;9744;49.364;7.484;2022-10-31T12:59:19;12.65;;;5.88;;
19219;SDS011;9744;49.364;7.484;2022-10-31T13:01:53;15.02;;;3.75;;
19219;SDS011;9744;49.364;7.484;2022-10-31T13:04:27;15.75;;;3.75;;
19219;SDS011;9744;49.364;7.484;2022-10-31T13:07:02;10.48;;;3.40;;
19219;SDS011;9744;49.364;7.484;2022-10-31T13:09:36;12.68;;;3.40;;
19219;SDS011;9744;49.364;7.484;2022-10-31T13:12:07;11.75;;;3.13;;
19219;SDS011;9744;49.364;7.484;2022-10-31T13:14:39;10.40;;;2.65;;
19219;SDS011;9744;49.364;7.484;2022-10-31T13:17:09;10.05;;;3.25;;
19219;SDS011;9744;49.364;7.484;2022-10-31T13:19:45;11.07;;;3.15;;
19219;SDS011;9744;49.364;7.484;2022-10-31T13:22:16;13.80;;;3.92;;
19219;SDS011;9744;49.364;7.484;2022-10-31T13:24:50;14.05;;;3.85;;
19219;SDS011;9744;49.364;7.484;2022-10-31T13:27:22;10.88;;;2.75;;
19219;SDS011;9744;49.364;7.484;2022-10-31T13:29:55;14.40;;;3.13;;
19219;SDS011;9744;49.364;7.484;2022-10-31T13:32:28;17.77;;;2.70;;
19219;SDS011;9744;49.364;7.484;2022-10-31T13:35:02;10.10;;;2.67;;
19219;SDS011;9744;49.364;7.484;2022-10-31T13:37:32;8.63;;;2.10;;
19219;SDS011;9744;49.364;7.484;2022-10-31T13:40:09;9.18;;;2.63;;
19219;SDS011;9744;49.364;7.484;2022-10-31T13:42:49;4.97;;;2.10;;
19219;SDS011;9744;49.364;7.484;2022-10-31T13:45:22;9.93;;;2.80;;
19219;SDS011;9744;49.364;7.484;2022-10-31T13:47:54;15.93;;;3.25;;
19219;SDS011;9744;49.364;7.484;2022-10-31T13:50:24;13.02;;;3.60;;
19219;SDS011;9744;49.364;7.484;2022-10-31T13:52:57;10.98;;;2.90;;
19219;SDS011;9744;49.364;7.484;2022-10-31T13:55:40;12.15;;;3.10;;
19219;SDS011;9744;49.364;7.484;2022-10-31T13:58:24;5.82;;;2.80;;
19219;SDS011;9744;49.364;7.484;2022-10-31T14:01:01;13.20;;;3.47;;
19219;SDS011;9744;49.364;7.484;2022-10-31T14:03:39;20.48;;;3.83;;
19219;SDS011;9744;49.364;7.484;2022-10-31T14:06:09;10.98;;;3.47;;
19219;SDS011;9744;49.364;7.484;2022-10-31T14:08:38;12.30;;;3.70;;
19219;SDS011;9744;49.364;7.484;2022-10-31T14:11:15;14.57;;;3.33;;
19219;SDS011;9744;49.364;7.484;2022-10-31T14:13:49;8.43;;;2.88;;
19219;SDS011;9744;49.364;7.484;2022-10-31T14:16:17;9.55;;;3.35;;
19219;SDS011;9744;49.364;7.484;2022-10-31T14:18:48;9.63;;;3.33;;
19219;SDS011;9744;49.364;7.484;2022-10-31T14:21:25;17.23;;;3.53;;
19219;SDS011;9744;49.364;7.484;2022-10-31T14:23:57;9.70;;;3.22;;
19219;SDS011;9744;49.364;7.484;2022-10-31T14:26:36;6.53;;;3.10;;
19219;SDS011;9744;49.364;7.484;2022-10-31T14:29:22;10.85;;;4.32;;
19219;SDS011;9744;49.364;7.484;2022-10-31T14:31:52;11.68;;;3.88;;
19219;SDS011;9744;49.364;7.484;2022-10-31T14:34:39;11.30;;;3.45;;
19219;SDS011;9744;49.364;7.484;2022-10-31T14:37:18;10.40;;;3.67;;
19219;SDS011;9744;49.364;7.484;2022-10-31T14:39:56;12.98;;;4.03;;
19219;SDS011;9744;49.364;7.484;2022-10-31T14:42:34;11.10;;;4.57;;
19219;SDS011;9744;49.364;7.484;2022-10-31T14:48:03;9.95;;;3.75;;
19219;SDS011;9744;49.364;7.484;2022-10-31T14:50:47;9.18;;;2.95;;
19219;SDS011;9744;49.364;7.484;2022-10-31T14:53:18;10.52;;;3.33;;
19219;SDS011;9744;49.364;7.484;2022-10-31T14:55:49;8.88;;;3.58;;
19219;SDS011;9744;49.364;7.484;2022-10-31T14:58:21;9.25;;;2.85;;
19219;SDS011;9744;49.364;7.484;2022-10-31T15:00:53;9.55;;;3.80;;
19219;SDS011;9744;49.364;7.484;2022-10-31T15:03:24;15.18;;;5.05;;
19219;SDS011;9744;49.364;7.484;2022-10-31T15:05:58;15.82;;;7.65;;
19219;SDS011;9744;49.364;7.484;2022-10-31T15:08:32;13.45;;;6.60;;
19219;SDS011;9744;49.364;7.484;2022-10-31T15:11:11;14.10;;;6.88;;
19219;SDS011;9744;49.364;7.484;2022-10-31T15:13:45;17.05;;;8.45;;
19219;SDS011;9744;49.364;7.484;2022-10-31T15:16:14;15.90;;;9.07;;
19219;SDS011;9744;49.364;7.484;2022-10-31T15:18:48;16.25;;;9.73;;
19219;SDS011;9744;49.364;7.484;2022-10-31T15:21:19;16.88;;;8.68;;
19219;SDS011;9744;49.364;7.484;2022-10-31T15:23:47;12.27;;;6.82;;
19219;SDS011;9744;49.364;7.484;2022-10-31T15:26:18;17.35;;;8.95;;
19219;SDS011;9744;49.364;7.484;2022-10-31T15:28:58;14.65;;;9.23;;
19219;SDS011;9744;49.364;7.484;2022-10-31T15:31:27;15.55;;;7.57;;
19219;SDS011;9744;49.364;7.484;2022-10-31T15:33:57;16.88;;;6.82;;
19219;SDS011;9744;49.364;7.484;2022-10-31T15:36:26;13.70;;;5.57;;
19219;SDS011;9744;49.364;7.484;2022-10-31T15:38:54;13.15;;;5.35;;
19219;SDS011;9744;49.364;7.484;2022-10-31T15:41:24;12.40;;;4.78;;
19219;SDS011;9744;49.364;7.484;2022-10-31T15:43:59;9.77;;;3.72;;
19219;SDS011;9744;49.364;7.484;2022-10-31T15:46:29;11.45;;;4.28;;
19219;SDS011;9744;49.364;7.484;2022-10-31T15:48:59;14.63;;;4.63;;
19219;SDS011;9744;49.364;7.484;2022-10-31T15:51:27;21.90;;;4.55;;